createdAt,value
2018-06-23T00:00:10.860Z,29.00
2018-06-23T00:02:39.651Z,27.83
2018-06-23T00:05:08.406Z,47.77
2018-06-23T00:07:37.028Z,27.23
2018-06-23T00:10:05.809Z,26.70
2018-06-23T00:12:34.507Z,20.20
2018-06-23T00:15:03.361Z,31.50
2018-06-23T00:17:31.698Z,25.17
2018-06-23T00:20:00.276Z,33.67
2018-06-23T00:22:29.164Z,30.53
2018-06-23T00:24:57.722Z,25.70
2018-06-23T00:27:26.518Z,37.67
2018-06-23T00:29:55.545Z,46.30
2018-06-23T00:32:24.424Z,39.93
2018-06-23T00:34:53.076Z,32.47
2018-06-23T00:37:23.131Z,44.57
2018-06-23T00:39:51.827Z,25.70
2018-06-23T00:42:20.747Z,34.27
2018-06-23T00:44:49.481Z,31.80
2018-06-23T00:47:17.992Z,36.23
2018-06-23T00:49:46.681Z,37.67
2018-06-23T00:52:15.352Z,31.00
2018-06-23T00:54:44.542Z,40.57
2018-06-23T00:57:13.221Z,39.10
2018-06-23T00:59:43.142Z,39.07
2018-06-23T01:02:12.042Z,35.30
2018-06-23T01:04:40.801Z,41.77
2018-06-23T01:07:10.332Z,35.07
2018-06-23T01:09:39.989Z,27.67
2018-06-23T01:12:08.766Z,30.87
2018-06-23T01:14:37.525Z,22.70
2018-06-23T01:17:08.059Z,35.17
2018-06-23T01:19:36.846Z,21.30
2018-06-23T01:22:05.448Z,30.70
2018-06-23T01:24:34.149Z,46.30
2018-06-23T01:27:02.783Z,36.23
2018-06-23T01:29:31.989Z,40.70
2018-06-23T01:32:00.486Z,41.90
2018-06-23T01:34:29.045Z,36.53
2018-06-23T01:36:58.155Z,28.93
2018-06-23T01:39:27.320Z,37.93
2018-06-23T01:41:56.218Z,44.87
2018-06-23T01:44:24.889Z,30.20
2018-06-23T01:46:54.562Z,34.97
2018-06-23T01:49:23.535Z,39.27
2018-06-23T01:51:52.190Z,31.60
2018-06-23T01:54:27.493Z,40.17
2018-06-23T01:56:56.261Z,36.77
2018-06-23T01:59:24.891Z,37.03
2018-06-23T02:01:54.658Z,24.40
2018-06-23T02:04:23.493Z,35.33
2018-06-23T02:06:52.183Z,37.50
2018-06-23T02:09:21.155Z,32.17
2018-06-23T02:11:50.173Z,35.03
2018-06-23T02:14:24.513Z,31.63
2018-06-23T02:16:58.492Z,32.65
2018-06-23T02:19:32.307Z,35.25
2018-06-23T02:22:08.278Z,27.53
2018-06-23T02:24:43.177Z,43.90
2018-06-23T02:27:17.226Z,28.40
2018-06-23T02:29:50.808Z,31.27
2018-06-23T02:32:24.897Z,43.13
2018-06-23T02:35:00.174Z,32.53
2018-06-23T02:37:28.800Z,43.40
2018-06-23T02:39:57.421Z,33.67
2018-06-23T02:42:26.017Z,39.80
2018-06-23T02:44:54.457Z,33.17
2018-06-23T02:47:22.841Z,25.50
2018-06-23T02:49:54.592Z,34.07
2018-06-23T02:52:23.100Z,31.07
2018-06-23T02:54:51.172Z,35.83
2018-06-23T02:57:19.263Z,29.73
2018-06-23T02:59:47.660Z,42.17
2018-06-23T03:02:16.144Z,32.50
2018-06-23T03:04:44.662Z,33.28
2018-06-23T03:07:13.101Z,31.63
2018-06-23T03:09:41.537Z,29.52
2018-06-23T03:12:10.075Z,32.95
2018-06-23T03:14:39.578Z,29.17
2018-06-23T03:17:13.237Z,33.53
2018-06-23T03:19:41.719Z,46.15
2018-06-23T03:22:10.195Z,32.93
2018-06-23T03:24:38.699Z,35.13
2018-06-23T03:27:07.259Z,25.55
2018-06-23T03:29:35.864Z,34.67
2018-06-23T03:32:04.450Z,35.60
2018-06-23T03:34:32.916Z,30.37
2018-06-23T03:37:01.064Z,37.80
2018-06-23T03:39:29.603Z,34.60
2018-06-23T03:41:58.464Z,21.25
2018-06-23T03:44:26.995Z,30.70
2018-06-23T03:46:55.952Z,21.43
2018-06-23T03:49:25.033Z,28.57
2018-06-23T03:51:53.207Z,23.60
2018-06-23T03:54:21.836Z,29.83
2018-06-23T03:56:50.399Z,32.10
2018-06-23T03:59:18.914Z,34.00
2018-06-23T04:01:47.602Z,31.10
2018-06-23T04:04:16.354Z,25.00
2018-06-23T04:06:44.878Z,22.43
2018-06-23T04:09:13.444Z,25.73
2018-06-23T04:11:44.129Z,26.60
2018-06-23T04:14:12.536Z,33.00
2018-06-23T04:16:41.052Z,27.17
2018-06-23T04:19:09.418Z,26.12
2018-06-23T04:21:37.834Z,26.45
2018-06-23T04:24:06.328Z,37.55
2018-06-23T04:26:34.841Z,42.20
2018-06-23T04:29:04.663Z,23.92
2018-06-23T04:31:37.755Z,35.52
2018-06-23T04:34:06.271Z,34.70
2018-06-23T04:36:34.717Z,35.13
2018-06-23T04:39:03.290Z,27.98
2018-06-23T04:41:31.725Z,22.05
2018-06-23T04:44:00.124Z,27.70
2018-06-23T04:46:28.742Z,30.13
2018-06-23T04:48:57.615Z,34.73
2018-06-23T04:51:26.098Z,33.17
2018-06-23T04:53:54.475Z,22.40
2018-06-23T04:56:22.884Z,22.13
2018-06-23T04:58:51.361Z,36.33
2018-06-23T05:01:20.261Z,28.07
2018-06-23T05:03:48.844Z,28.50
2018-06-23T05:06:17.324Z,32.37
2018-06-23T05:08:45.876Z,24.77
2018-06-23T05:11:14.386Z,38.93
2018-06-23T05:13:43.944Z,44.70
2018-06-23T05:16:12.478Z,29.77
2018-06-23T05:18:41.155Z,39.77
2018-06-23T05:21:09.832Z,28.70
2018-06-23T05:23:38.344Z,41.63
2018-06-23T05:26:07.715Z,35.50
2018-06-23T05:28:36.563Z,26.60
2018-06-23T05:31:05.200Z,24.67
2018-06-23T05:33:34.722Z,33.30
2018-06-23T05:36:04.830Z,34.00
2018-06-23T05:38:34.424Z,28.73
2018-06-23T05:41:03.901Z,39.60
2018-06-23T05:43:35.185Z,32.10
2018-06-23T05:46:05.809Z,34.53
2018-06-23T05:49:54.659Z,23.40
2018-06-23T05:52:24.907Z,41.02
2018-06-23T05:54:54.070Z,33.35
2018-06-23T06:06:07.802Z,31.70
2018-06-23T06:08:39.080Z,31.07
2018-06-23T06:11:08.963Z,32.93
2018-06-23T06:13:43.042Z,31.07
2018-06-23T06:16:12.179Z,35.40
2018-06-23T06:18:41.986Z,29.03
2018-06-23T06:21:11.207Z,38.90
2018-06-23T06:23:40.419Z,35.57
2018-06-23T06:26:10.094Z,37.30
2018-06-23T06:28:40.651Z,28.33
2018-06-23T06:31:11.492Z,33.23
2018-06-23T06:39:32.513Z,35.50
2018-06-23T06:42:20.444Z,33.00
2018-06-23T06:45:15.711Z,27.70
2018-06-23T06:47:58.472Z,42.90
2018-06-23T06:50:29.360Z,30.20
2018-06-23T06:53:13.768Z,28.70
2018-06-23T06:55:48.046Z,30.03
2018-06-23T06:58:17.786Z,33.63
2018-06-23T07:00:51.088Z,35.77
2018-06-23T07:03:24.016Z,20.60
2018-06-23T07:05:53.401Z,24.93
2018-06-23T07:08:22.789Z,28.53
2018-06-23T07:10:52.469Z,29.17
2018-06-23T07:13:23.327Z,38.13
2018-06-23T07:15:54.293Z,22.93
2018-06-23T07:18:23.551Z,26.80
2018-06-23T07:20:52.609Z,22.33
2018-06-23T07:23:26.782Z,23.57
2018-06-23T07:30:53.703Z,19.83
2018-06-23T07:33:22.941Z,23.63
2018-06-23T07:35:52.545Z,17.70
2018-06-23T07:38:22.478Z,33.30
2018-06-23T07:40:52.092Z,24.60
2018-06-23T07:43:21.167Z,24.27
2018-06-23T07:45:50.611Z,14.40
2018-06-23T07:48:19.930Z,22.30
2018-06-23T07:50:49.256Z,18.10
2018-06-23T07:53:19.204Z,14.87
2018-06-23T07:55:48.616Z,20.47
2018-06-23T07:58:18.267Z,16.53
2018-06-23T08:00:49.603Z,12.40
2018-06-23T08:03:33.555Z,25.20
2018-06-23T08:06:04.099Z,11.13
2018-06-23T08:08:37.026Z,17.13
2018-06-23T08:11:07.566Z,25.43
2018-06-23T08:13:56.670Z,15.13
2018-06-23T08:16:28.377Z,22.90
2018-06-23T08:18:57.380Z,15.67
2018-06-23T08:21:26.569Z,14.93
2018-06-23T08:23:55.303Z,14.00
2018-06-23T08:26:24.338Z,27.87
2018-06-23T08:28:53.512Z,16.10
2018-06-23T08:31:22.653Z,18.10
2018-06-23T08:33:51.655Z,19.23
2018-06-23T08:36:20.735Z,10.30
2018-06-23T08:38:49.947Z,17.20
2018-06-23T08:41:19.132Z,21.80
2018-06-23T08:43:48.377Z,16.93
2018-06-23T08:46:17.638Z,22.30
2018-06-23T08:48:47.239Z,11.17
2018-06-23T08:51:16.387Z,7.53
2018-06-23T08:53:44.822Z,11.97
2018-06-23T08:56:13.208Z,9.07
2018-06-23T08:58:42.884Z,12.33
2018-06-23T09:01:11.593Z,14.90
2018-06-23T09:03:40.167Z,13.40
2018-06-23T09:06:08.775Z,17.27
2018-06-23T09:08:37.376Z,10.83
2018-06-23T09:11:06.429Z,16.70
2018-06-23T09:13:34.876Z,10.13
2018-06-23T09:16:03.284Z,18.83
2018-06-23T09:18:31.844Z,12.00
2018-06-23T09:21:00.219Z,14.73
2018-06-23T09:23:28.782Z,15.53
2018-06-23T09:25:57.235Z,9.53
2018-06-23T09:28:26.130Z,14.07
2018-06-23T09:30:54.501Z,13.30
2018-06-23T09:33:22.844Z,17.97
2018-06-23T09:35:51.310Z,10.10
2018-06-23T09:38:19.648Z,13.10
2018-06-23T09:40:48.043Z,15.63
2018-06-23T09:43:16.418Z,12.40
2018-06-23T09:45:44.781Z,11.93
2018-06-23T09:48:13.200Z,16.43
2018-06-23T09:50:41.867Z,8.97
2018-06-23T09:53:10.282Z,21.40
2018-06-23T09:55:39.021Z,9.50
2018-06-23T09:58:07.711Z,18.57
2018-06-23T10:00:36.239Z,12.70
2018-06-23T10:03:04.665Z,22.53
2018-06-23T10:05:33.559Z,19.03
2018-06-23T10:08:02.109Z,10.90
2018-06-23T10:10:31.026Z,9.23
2018-06-23T10:12:59.382Z,7.87
2018-06-23T10:15:27.954Z,12.13
2018-06-23T10:17:56.398Z,8.83
2018-06-23T10:20:24.832Z,16.60
2018-06-23T10:22:53.247Z,13.10
2018-06-23T10:25:21.669Z,13.43
2018-06-23T10:27:50.162Z,15.90
2018-06-23T10:30:18.497Z,16.10
2018-06-23T10:32:46.946Z,10.33
2018-06-23T10:35:15.419Z,10.43
2018-06-23T10:37:43.999Z,6.80
2018-06-23T10:40:12.366Z,14.57
2018-06-23T10:42:41.360Z,14.17
2018-06-23T10:45:09.769Z,11.60
2018-06-23T10:47:38.129Z,10.97
2018-06-23T10:50:06.715Z,17.50
2018-06-23T10:52:35.010Z,10.70
2018-06-23T10:55:03.419Z,19.23
2018-06-23T10:57:32.178Z,14.90
2018-06-23T11:00:00.563Z,17.93
2018-06-23T11:02:28.907Z,18.73
2018-06-23T11:04:57.118Z,17.87
2018-06-23T11:07:25.263Z,15.10
2018-06-23T11:09:53.774Z,15.30
2018-06-23T11:12:25.086Z,7.07
2018-06-23T11:14:53.780Z,8.50
2018-06-23T11:17:23.802Z,9.30
2018-06-23T11:19:52.328Z,11.93
2018-06-23T11:22:22.006Z,13.90
2018-06-23T11:24:50.572Z,7.83
2018-06-23T11:27:19.868Z,8.77
2018-06-23T11:29:48.371Z,10.73
2018-06-23T11:32:16.947Z,12.03
2018-06-23T11:34:45.808Z,19.63
2018-06-23T11:37:14.350Z,11.40
2018-06-23T11:39:42.856Z,13.77
2018-06-23T11:42:11.368Z,26.80
2018-06-23T11:44:40.250Z,10.87
2018-06-23T11:47:08.462Z,8.77
2018-06-23T11:49:38.505Z,9.00
2018-06-23T11:52:07.515Z,17.80
2018-06-23T11:54:43.529Z,11.10
2018-06-23T11:57:12.498Z,7.53
2018-06-23T11:59:41.196Z,9.43
2018-06-23T12:02:09.673Z,9.70
2018-06-23T12:04:38.754Z,13.30
2018-06-23T12:07:15.068Z,8.53
2018-06-23T12:09:44.146Z,11.50
2018-06-23T12:12:13.478Z,12.53
2018-06-23T12:14:42.135Z,13.23
2018-06-23T12:17:13.246Z,15.20
2018-06-23T12:19:42.067Z,6.13
2018-06-23T12:22:11.107Z,7.53
2018-06-23T12:24:39.866Z,8.23
2018-06-23T12:27:08.657Z,13.70
2018-06-23T12:29:37.975Z,9.53
2018-06-23T12:32:07.634Z,16.27
2018-06-23T12:34:36.236Z,9.80
2018-06-23T12:37:06.130Z,15.60
2018-06-23T12:39:35.735Z,10.13
2018-06-23T12:42:04.686Z,6.17
2018-06-23T12:44:33.457Z,6.30
2018-06-23T12:47:03.372Z,9.30
2018-06-23T12:49:32.238Z,8.07
2018-06-23T12:52:00.725Z,7.00
2018-06-23T12:54:29.401Z,11.80
2018-06-23T12:56:59.603Z,9.10
2018-06-23T12:59:29.328Z,7.93
2018-06-23T13:01:57.996Z,13.33
2018-06-23T13:04:26.996Z,20.93
2018-06-23T13:06:58.029Z,9.47
2018-06-23T13:09:27.102Z,5.40
2018-06-23T13:11:56.360Z,9.17
2018-06-23T13:14:28.734Z,14.67
2018-06-23T13:16:58.378Z,7.20
2018-06-23T13:19:27.220Z,9.97
2018-06-23T13:21:55.793Z,11.57
2018-06-23T13:24:24.911Z,14.20
2018-06-23T13:26:53.794Z,6.83
2018-06-23T13:29:23.228Z,14.70
2018-06-23T13:31:51.805Z,9.37
2018-06-23T13:34:20.209Z,8.97
2018-06-23T13:36:49.264Z,12.17
2018-06-23T13:39:17.717Z,12.17
2018-06-23T13:41:48.599Z,10.10
2018-06-23T13:44:17.576Z,11.93
2018-06-23T13:46:46.525Z,13.27
2018-06-23T13:49:17.958Z,9.40
2018-06-23T13:51:48.092Z,9.03
2018-06-23T13:54:17.032Z,8.47
2018-06-23T13:56:46.063Z,19.30
2018-06-23T13:59:15.263Z,11.03
2018-06-23T14:01:44.684Z,15.63
2018-06-23T14:04:19.903Z,9.93
2018-06-23T14:06:48.751Z,11.77
2018-06-23T14:09:17.548Z,7.33
2018-06-23T14:11:46.377Z,4.37
2018-06-23T14:14:15.488Z,9.53
2018-06-23T14:16:44.351Z,7.10
2018-06-23T14:19:13.018Z,7.17
2018-06-23T14:21:42.411Z,9.13
2018-06-23T14:24:10.885Z,11.47
2018-06-23T14:26:40.264Z,13.70
2018-06-23T14:29:09.658Z,12.40
2018-06-23T14:31:53.382Z,7.03
2018-06-23T14:34:32.147Z,4.40
2018-06-23T14:37:00.633Z,7.93
2018-06-23T14:39:29.438Z,7.40
2018-06-23T14:41:59.553Z,5.60
2018-06-23T14:44:28.131Z,7.93
2018-06-23T14:46:56.782Z,6.13
2018-06-23T14:49:25.408Z,5.20
2018-06-23T14:51:53.811Z,8.23
2018-06-23T14:54:26.261Z,6.97
2018-06-23T14:56:55.211Z,6.87
2018-06-23T14:59:25.142Z,6.17
2018-06-23T15:01:54.026Z,4.60
2018-06-23T15:04:22.823Z,6.33
2018-06-23T15:06:51.947Z,4.40
2018-06-23T15:09:33.348Z,5.30
2018-06-23T15:12:14.409Z,5.83
2018-06-23T15:14:44.110Z,5.90
2018-06-23T15:17:13.513Z,6.70
2018-06-23T15:19:42.693Z,6.70
2018-06-23T15:22:24.443Z,4.40
2018-06-23T15:49:37.952Z,2.90
2018-06-23T16:10:55.366Z,5.23
2018-06-23T16:13:51.075Z,3.67
2018-06-23T16:16:29.401Z,8.13
2018-06-23T16:35:17.594Z,8.13
2018-06-23T16:41:00.445Z,6.33
2018-06-23T16:43:38.924Z,5.37
2018-06-23T17:49:50.549Z,4.77
2018-06-23T17:52:21.677Z,3.80
2018-06-23T17:55:05.825Z,7.50
2018-06-23T17:57:34.990Z,7.60
2018-06-23T18:00:05.820Z,10.97
2018-06-23T18:02:35.375Z,6.53
2018-06-23T18:05:09.030Z,4.87
2018-06-23T18:07:40.768Z,5.43
2018-06-23T18:10:13.496Z,6.50
2018-06-23T18:12:45.985Z,5.40
2018-06-23T18:15:15.488Z,4.40
2018-06-23T18:19:27.241Z,4.00
2018-06-23T18:22:00.384Z,4.03
2018-06-23T18:24:46.235Z,7.30
2018-06-23T18:27:18.768Z,5.10
2018-06-23T18:29:48.216Z,6.10
2018-06-23T18:32:17.889Z,4.03
2018-06-23T18:34:46.469Z,4.33
2018-06-23T18:37:15.747Z,4.03
2018-06-23T18:40:09.667Z,4.97
2018-06-23T18:42:41.826Z,1.90
2018-06-23T18:45:10.703Z,14.13
2018-06-23T18:47:40.500Z,5.70
2018-06-23T18:50:09.446Z,4.53
2018-06-23T18:52:38.202Z,7.00
2018-06-23T18:55:07.007Z,6.73
2018-06-23T18:57:35.725Z,5.90
2018-06-23T19:00:05.522Z,6.50
2018-06-23T19:02:35.696Z,6.07
2018-06-23T19:05:04.927Z,7.30
2018-06-23T19:07:33.226Z,1.47
2018-06-23T19:10:01.540Z,4.77
2018-06-23T19:12:29.875Z,3.03
2018-06-23T19:14:58.162Z,7.60
2018-06-23T19:17:26.439Z,4.63
2018-06-23T19:19:54.742Z,3.10
2018-06-23T19:22:23.147Z,4.77
2018-06-23T19:24:51.470Z,3.97
2018-06-23T19:27:19.754Z,9.00
2018-06-23T19:29:47.790Z,4.47
2018-06-23T19:32:16.171Z,5.23
2018-06-23T19:34:44.523Z,5.03
2018-06-23T19:37:12.815Z,4.50
2018-06-23T19:39:41.187Z,5.20
2018-06-23T19:42:09.474Z,7.60
2018-06-23T19:44:37.786Z,4.97
2018-06-23T19:47:06.211Z,5.47
2018-06-23T19:49:34.543Z,5.70
2018-06-23T19:52:02.842Z,6.60
2018-06-23T19:54:31.164Z,7.30
2018-06-23T19:56:59.463Z,10.93
2018-06-23T19:59:27.756Z,11.70
2018-06-23T20:01:56.063Z,4.63
2018-06-23T20:04:24.359Z,5.27
2018-06-23T20:06:52.658Z,12.13
2018-06-23T20:09:20.978Z,12.53
2018-06-23T20:11:49.002Z,7.70
2018-06-23T20:14:17.283Z,7.83
2018-06-23T20:16:45.600Z,8.70
2018-06-23T20:19:13.887Z,6.67
2018-06-23T20:21:41.914Z,15.97
2018-06-23T20:24:10.279Z,9.70
2018-06-23T20:26:38.639Z,6.80
2018-06-23T20:29:06.987Z,10.63
2018-06-23T20:31:35.284Z,11.17
2018-06-23T20:34:03.616Z,12.13
2018-06-23T20:36:31.927Z,7.37
2018-06-23T20:38:59.981Z,10.37
2018-06-23T20:41:28.014Z,10.13
2018-06-23T20:43:56.426Z,9.67
2018-06-23T20:46:24.751Z,7.03
2018-06-23T20:48:53.054Z,9.83
2018-06-23T20:51:21.443Z,10.13
2018-06-23T20:53:49.766Z,12.47
2018-06-23T20:56:18.095Z,14.40
2018-06-23T20:58:46.455Z,13.70
2018-06-23T21:01:14.784Z,16.60
2018-06-23T21:03:43.110Z,11.70
2018-06-23T21:06:11.460Z,9.30
2018-06-23T21:08:39.858Z,14.00
2018-06-23T21:11:08.196Z,12.17
2018-06-23T21:13:36.655Z,13.87
2018-06-23T21:16:05.304Z,11.70
2018-06-23T21:18:33.624Z,13.70
2018-06-23T21:21:01.950Z,9.70
2018-06-23T21:23:30.259Z,18.73
2018-06-23T21:25:58.566Z,15.07
2018-06-23T21:28:26.895Z,12.20
2018-06-23T21:30:55.223Z,11.90
2018-06-23T21:33:23.996Z,14.27
2018-06-23T21:35:52.338Z,13.70
2018-06-23T21:38:20.644Z,9.53
2018-06-23T21:40:48.952Z,9.97
2018-06-23T21:43:17.398Z,11.93
2018-06-23T21:45:45.674Z,12.47
2018-06-23T21:48:13.739Z,10.60
2018-06-23T21:50:42.083Z,14.57
2018-06-23T21:53:10.480Z,6.90
2018-06-23T21:55:38.787Z,9.43
2018-06-23T21:58:07.135Z,10.03
2018-06-23T22:00:38.745Z,13.10
2018-06-23T22:03:09.415Z,10.10
2018-06-23T22:05:37.771Z,8.87
2018-06-23T22:08:07.107Z,13.80
2018-06-23T22:10:35.421Z,14.90
2018-06-23T22:13:04.123Z,11.33
2018-06-23T22:15:32.446Z,10.60
2018-06-23T22:18:00.754Z,11.77
2018-06-23T22:20:29.074Z,23.40
2018-06-23T22:22:57.255Z,15.93
2018-06-23T22:25:25.583Z,13.37
2018-06-23T22:27:53.883Z,11.27
2018-06-23T22:30:22.629Z,16.13
2018-06-23T22:32:50.978Z,13.20
2018-06-23T22:35:19.316Z,11.13
2018-06-23T22:37:47.708Z,18.90
2018-06-23T22:40:16.020Z,8.90
2018-06-23T22:42:44.353Z,13.63
2018-06-23T22:45:12.704Z,11.07
2018-06-23T22:47:41.008Z,10.90
2018-06-23T22:50:10.023Z,13.27
2018-06-23T22:52:38.671Z,12.70
2018-06-23T22:55:07.476Z,11.43
2018-06-23T22:57:35.839Z,11.13
2018-06-23T23:00:07.650Z,12.33
2018-06-23T23:02:35.963Z,12.00
2018-06-23T23:05:04.670Z,12.70
2018-06-23T23:07:32.976Z,9.67
2018-06-23T23:10:01.296Z,13.50
2018-06-23T23:12:29.640Z,10.20
2018-06-23T23:14:57.728Z,8.50
2018-06-23T23:17:26.119Z,10.07
2018-06-23T23:19:54.430Z,11.23
2018-06-23T23:22:22.780Z,11.37
2018-06-23T23:24:51.135Z,9.93
2018-06-23T23:27:19.457Z,10.37
2018-06-23T23:29:47.775Z,14.07
2018-06-23T23:32:16.118Z,12.00
2018-06-23T23:34:44.434Z,11.03
2018-06-23T23:37:12.777Z,11.20
2018-06-23T23:39:41.086Z,8.93
2018-06-23T23:42:09.431Z,8.17
2018-06-23T23:44:37.754Z,14.83
2018-06-23T23:47:06.091Z,12.53
2018-06-23T23:49:34.409Z,10.43
2018-06-23T23:52:02.834Z,8.90
2018-06-23T23:54:31.162Z,11.27
2018-06-23T23:56:59.212Z,12.40
2018-06-23T23:59:27.549Z,10.23
